Time;durP1;ratioP1;P1;durP2;ratioP2;P2;SDS_P1;SDS_P2;PMS_P1;PMS_P2;Temp;Humidity;BMP_temperature;BMP_pressure;BME280_temperature;BME280_humidity;BME280_pressure;Samples;Min_cycle;Max_cycle;Signal;HPM_P1;HPM_P2
2021/08/23 01:49:59;;;;;;;;;15.00;15.00;;;;;18.34;95.18;99499.78;2383769;31;2810635;-45
2021/08/23 01:52:31;;;;;;;;;19.00;16.50;;;;;18.12;97.09;99493.72;2388476;31;2829364;-45
2021/08/23 01:54:59;;;;;;;;;18.50;18.50;;;;;18.34;97.13;99488.91;2388922;31;2833507;-47
2021/08/23 01:57:28;;;;;;;;;19.50;19.50;;;;;18.31;96.74;99495.50;2389077;31;2829747;-44
2021/08/23 01:59:56;;;;;;;;;15.50;14.00;;;;;18.47;95.12;99489.44;2392172;31;2798175;-44
2021/08/23 02:02:25;;;;;;;;;21.00;21.00;;;;;18.23;96.58;99499.97;2388945;31;2842961;-45
2021/08/23 02:04:53;;;;;;;;;21.00;21.00;;;;;18.04;97.76;99493.59;2389376;31;2835641;-46
2021/08/23 02:07:22;;;;;;;;;21.00;19.50;;;;;18.11;97.92;99493.84;2388889;31;2839780;-45
2021/08/23 02:09:50;;;;;;;;;20.00;17.00;;;;;18.28;96.72;99495.81;2389602;31;2498167;-46
2021/08/23 02:12:18;;;;;;;;;17.50;16.00;;;;;18.21;96.02;99490.09;2388042;31;2825181;-45
2021/08/23 02:14:47;;;;;;;;;20.50;17.50;;;;;18.44;94.91;99478.88;2389076;31;2837721;-45
2021/08/23 02:17:14;;;;;;;;;20.00;19.50;;;;;18.47;94.85;99483.16;2390882;31;2489786;-46
2021/08/23 02:19:43;;;;;;;;;20.00;19.00;;;;;18.48;95.12;99488.41;2388776;31;2838735;-45
2021/08/23 02:22:13;;;;;;;;;17.00;17.00;;;;;18.36;95.51;99495.06;2388542;31;2819998;-45
2021/08/23 02:24:41;;;;;;;;;18.00;16.50;;;;;18.43;94.89;99490.72;2388680;31;2824164;-44
2021/08/23 02:27:12;;;;;;;;;20.33;20.33;;;;;18.47;94.79;99485.88;2389158;31;2833545;-46
2021/08/23 02:29:39;;;;;;;;;22.00;22.00;;;;;18.20;95.84;99496.53;2402019;31;2489771;-45
2021/08/23 02:32:09;;;;;;;;;23.00;22.00;;;;;18.46;95.30;99493.16;2387934;39;2838769;-44
2021/08/23 02:34:37;;;;;;;;;21.67;21.67;;;;;18.53;93.94;99482.53;2403213;31;3567967;-46
2021/08/23 02:37:06;;;;;;;;;20.00;18.50;;;;;18.60;93.45;99484.50;2388470;31;2839789;-44
2021/08/23 02:39:35;;;;;;;;;21.67;21.67;;;;;18.56;93.71;99482.22;2388703;39;2850224;-44
2021/08/23 02:42:04;;;;;;;;;20.67;20.33;;;;;18.50;94.61;99486.41;2403087;31;3581401;-44
2021/08/23 02:44:33;;;;;;;;;24.00;23.67;;;;;18.15;97.11;99487.13;2389054;31;3595988;-45
2021/08/23 02:47:02;;;;;;;;;21.00;21.00;;;;;18.12;97.38;99485.56;2401819;31;2844968;-45
2021/08/23 02:49:31;;;;;;;;;26.00;26.00;;;;;18.08;97.37;99483.28;2390679;31;3600247;-46
2021/08/23 02:52:00;;;;;;;;;29.00;24.33;;;;;18.40;96.84;99489.19;2387711;39;3590806;-45
2021/08/23 02:54:30;;;;;;;;;25.67;22.00;;;;;18.74;93.41;99490.44;2401974;31;2848134;-45
2021/08/23 02:56:58;;;;;;;;;24.33;23.00;;;;;18.76;93.30;99483.03;2403553;31;3582502;-45
2021/08/23 02:59:27;;;;;;;;;23.00;23.00;;;;;18.60;94.24;99489.09;2389088;31;2844036;-45
2021/08/23 03:01:56;;;;;;;;;24.00;20.00;;;;;18.65;94.79;99479.47;2400969;31;2832549;-45
2021/08/23 03:04:25;;;;;;;;;23.00;20.33;;;;;18.81;93.80;99499.75;2390714;31;3580408;-46
2021/08/23 03:06:54;;;;;;;;;22.00;22.00;;;;;18.82;92.69;99493.28;2390938;31;3582486;-45
2021/08/23 03:09:23;;;;;;;;;23.00;23.00;;;;;18.74;94.05;99517.63;2387681;31;2847077;-44
2021/08/23 03:11:52;;;;;;;;;24.67;22.00;;;;;18.69;93.52;99536.28;2403541;31;3586613;-45
2021/08/23 03:14:22;;;;;;;;;24.00;21.67;;;;;18.76;91.58;99512.94;2390112;31;2834696;-44
2021/08/23 03:16:56;;;;;;;;;22.00;22.00;;;;;18.79;90.97;99501.75;2401237;31;2841874;-46
2021/08/23 03:19:25;;;;;;;;;23.33;22.00;;;;;19.18;88.48;99531.47;2400805;31;2835629;-44
2021/08/23 03:21:54;;;;;;;;;21.33;20.67;;;;;19.25;88.24;99516.22;2403425;31;3565788;-45
2021/08/23 03:24:22;;;;;;;;;22.00;20.33;;;;;18.97;89.94;99518.97;2391376;31;3567882;-44
2021/08/23 03:26:51;;;;;;;;;20.67;20.33;;;;;19.20;87.89;99524.00;2389581;46;3562667;-44
2021/08/23 03:29:20;;;;;;;;;25.00;19.50;;;;;18.99;89.39;99516.97;2400675;31;2828307;-45
2021/08/23 03:31:49;;;;;;;;;26.33;20.67;;;;;18.97;91.04;99518.97;2389156;31;2851314;-45
2021/08/23 03:34:18;;;;;;;;;18.00;17.00;;;;;19.04;88.83;99509.22;2400769;31;2832493;-44
2021/08/23 03:36:48;;;;;;;;;21.00;18.33;;;;;18.82;90.00;99504.16;2388156;31;2846058;-45
2021/08/23 03:39:17;;;;;;;;;19.00;19.00;;;;;18.89;89.38;99513.44;2399319;39;2836679;-45
2021/08/23 03:41:45;;;;;;;;;23.00;21.33;;;;;18.38;91.88;99507.50;2390233;39;3582499;-45
2021/08/23 03:44:13;;;;;;;;;20.50;17.50;;;;;18.87;90.05;99512.72;2389055;39;2487786;-45
2021/08/23 03:46:42;;;;;;;;;22.33;21.67;;;;;19.10;88.67;99520.50;2388099;31;2848211;-46
2021/08/23 03:49:11;;;;;;;;;20.00;18.67;;;;;19.05;88.12;99529.09;2402641;31;3554323;-46
2021/08/23 03:51:40;;;;;;;;;22.00;20.00;;;;;19.07;88.64;99519.78;2399582;31;2837741;-46
2021/08/23 03:54:09;;;;;;;;;20.50;19.00;;;;;19.23;87.12;99521.81;2399445;31;2832473;-44
2021/08/23 03:56:38;;;;;;;;;16.67;15.00;;;;;19.37;86.19;99519.56;2388357;31;3549167;-45
2021/08/23 03:59:07;;;;;;;;;19.00;19.00;;;;;19.24;86.25;99525.38;2388191;39;2836683;-46
2021/08/23 04:01:35;;;;;;;;;20.00;19.00;;;;;19.20;87.02;99529.44;2387598;39;2823162;-44
2021/08/23 04:04:05;;;;;;;;;22.00;22.00;;;;;19.06;87.75;99522.63;2389429;31;2840834;-45
2021/08/23 04:06:34;;;;;;;;;23.00;21.33;;;;;19.24;86.63;99522.66;2401824;39;3583452;-46
2021/08/23 04:09:02;;;;;;;;;24.00;22.00;;;;;18.69;89.54;99517.22;2388812;31;2843927;-47
2021/08/23 04:11:31;;;;;;;;;22.00;22.00;;;;;18.58;91.15;99524.56;2388147;31;2841875;-44
2021/08/23 04:13:59;;;;;;;;;21.00;19.67;;;;;18.93;89.32;99531.19;2390322;31;3550235;-46
2021/08/23 04:16:28;;;;;;;;;20.00;19.00;;;;;19.11;88.43;99538.50;2387665;31;2843657;-45
2021/08/23 04:18:57;;;;;;;;;17.50;17.50;;;;;19.19;86.83;99533.16;2388709;31;2824208;-46
2021/08/23 04:21:25;;;;;;;;;20.00;20.00;;;;;19.06;88.01;99528.97;2388632;39;2843986;-45
2021/08/23 04:23:54;;;;;;;;;19.00;19.00;;;;;19.00;88.99;99532.28;2388841;31;2827257;-45
2021/08/23 04:26:23;;;;;;;;;19.50;17.50;;;;;18.79;88.77;99528.97;2388297;31;2824148;-45
2021/08/23 04:28:51;;;;;;;;;19.00;19.00;;;;;19.17;87.05;99530.59;2388997;31;2832496;-45
2021/08/23 04:31:20;;;;;;;;;20.00;20.00;;;;;19.38;86.24;99543.06;2391928;31;3566854;-45
2021/08/23 04:33:48;;;;;;;;;21.00;19.50;;;;;19.20;86.70;99534.88;2387659;31;2819985;-45
2021/08/23 04:36:17;;;;;;;;;23.00;23.00;;;;;19.36;86.41;99536.94;2388246;39;2850216;-46
2021/08/23 04:38:46;;;;;;;;;22.50;20.00;;;;;19.34;86.92;99547.97;2388167;39;2841967;-44
2021/08/23 04:41:14;;;;;;;;;19.50;19.50;;;;;19.32;86.91;99552.69;2387165;39;2834544;-44
2021/08/23 04:43:43;;;;;;;;;24.67;22.00;;;;;19.10;88.90;99558.59;2390533;31;3579329;-44
2021/08/23 04:46:11;;;;;;;;;17.50;17.00;;;;;19.26;87.52;99558.75;2387329;31;2830466;-46
2021/08/23 04:48:40;;;;;;;;;24.33;22.00;;;;;19.72;85.38;99567.75;2390226;31;3586801;-45
2021/08/23 04:51:09;;;;;;;;;23.67;23.67;;;;;19.58;85.72;99562.84;2387450;31;2843970;-45
2021/08/23 04:53:39;;;;;;;;;24.33;23.33;;;;;19.82;84.13;99571.25;2400906;39;2847144;-44
2021/08/23 04:56:11;;;;;;;;;20.00;20.00;;;;;19.76;85.04;99571.03;2399715;31;2833652;-49
2021/08/23 04:58:40;;;;;;;;;20.00;20.00;;;;;19.73;85.09;99573.06;2388047;31;2833503;-46
2021/08/23 05:01:09;;;;;;;;;23.00;20.50;;;;;19.52;85.94;99578.78;2387412;39;2839847;-45
2021/08/23 05:03:37;;;;;;;;;22.50;20.00;;;;;19.65;85.26;99567.50;2388542;47;2498155;-45
2021/08/23 05:06:06;;;;;;;;;29.00;19.33;;;;;19.74;85.39;99566.59;2390388;31;2857544;-47
2021/08/23 05:08:35;;;;;;;;;23.00;21.50;;;;;19.45;86.71;99566.78;2399909;31;2828310;-45
2021/08/23 05:11:04;;;;;;;;;22.67;21.00;;;;;19.53;86.64;99568.75;2389332;31;2841877;-46
2021/08/23 05:13:34;;;;;;;;;22.33;20.00;;;;;19.38;87.81;99575.72;2403262;31;3564759;-45
2021/08/23 05:16:02;;;;;;;;;22.00;22.00;;;;;19.62;86.60;99565.09;2390005;31;3578281;-46
2021/08/23 05:18:32;;;;;;;;;24.33;22.67;;;;;19.78;85.85;99579.94;2385728;31;2850246;-46
2021/08/23 05:21:03;;;;;;;;;21.67;19.33;;;;;19.84;85.72;99580.13;2399238;31;2830381;-45
2021/08/23 05:23:35;;;;;;;;;19.50;19.50;;;;;20.06;84.92;99597.88;2401216;31;2828762;-46
2021/08/23 05:26:10;;;;;;;;;25.00;21.00;;;;;20.20;83.08;99593.75;2388003;31;2842889;-46
2021/08/23 05:28:38;;;;;;;;;19.00;19.00;;;;;20.26;83.64;99597.69;2389381;31;2820033;-46
2021/08/23 05:31:08;;;;;;;;;21.00;21.00;;;;;20.68;81.38;99594.25;2389531;31;2835654;-45
2021/08/23 05:33:37;;;;;;;;;19.00;19.00;;;;;20.88;79.89;99592.13;2400896;31;2838777;-45
2021/08/23 05:36:05;;;;;;;;;19.67;19.67;;;;;21.77;76.28;99588.00;2392503;31;3566921;-45
2021/08/23 05:38:34;;;;;;;;;19.33;17.00;;;;;21.77;75.58;99588.00;2391714;39;3561610;-46
2021/08/23 05:41:02;;;;;;;;;16.00;16.00;;;;;21.88;75.72;99590.41;2392717;31;3553293;-47
2021/08/23 05:43:31;;;;;;;;;18.00;16.00;;;;;21.57;76.93;99592.94;2402660;31;2811629;-45
2021/08/23 05:46:00;;;;;;;;;15.00;14.67;;;;;21.31;78.22;99588.41;2393702;31;3542878;-46
2021/08/23 05:48:30;;;;;;;;;18.00;17.00;;;;;21.60;75.64;99587.13;2401077;39;2831435;-46
2021/08/23 05:50:59;;;;;;;;;19.00;17.00;;;;;22.06;74.02;99593.81;2389784;31;2833530;-46
2021/08/23 05:53:27;;;;;;;;;18.50;15.00;;;;;22.09;73.60;99593.50;2389835;31;2812714;-47
2021/08/23 05:55:57;;;;;;;;;23.00;19.25;;;;;21.98;74.33;99596.56;2390491;31;3583504;-48
2021/08/23 05:58:25;;;;;;;;;18.50;17.50;;;;;22.31;74.31;99596.59;2401660;39;2817859;-47
2021/08/23 06:00:54;;;;;;;;;15.67;15.67;;;;;22.72;74.14;99600.13;2390819;31;2481430;-46
2021/08/23 06:03:22;;;;;;;;;21.00;18.00;;;;;22.37;75.26;99595.91;2403338;31;2481461;-46
2021/08/23 06:05:54;;;;;;;;;15.00;15.00;;;;;22.33;75.71;99598.13;2401382;31;3528283;-47
2021/08/23 06:08:24;;;;;;;;;16.33;14.33;;;;;22.53;75.95;99595.88;2391653;31;3542893;-48
2021/08/23 06:10:52;;;;;;;;;14.33;13.33;;;;;21.63;79.60;99598.56;2401158;39;3529328;-47
2021/08/23 06:13:21;;;;;;;;;16.33;14.67;;;;;21.72;79.45;99598.59;2394489;31;3544920;-46
2021/08/23 06:15:49;;;;;;;;;15.33;15.00;;;;;21.95;77.74;99604.25;2402125;31;3526219;-49
2021/08/23 06:18:18;;;;;;;;;16.50;16.50;;;;;22.20;77.26;99610.63;2388504;31;2829384;-47
2021/08/23 06:20:50;;;;;;;;;15.00;15.00;;;;;22.10;78.31;99605.28;2392082;31;2481939;-47
2021/08/23 06:23:23;;;;;;;;;16.00;14.00;;;;;22.09;78.01;99604.44;2400802;31;2818916;-46
2021/08/23 06:25:52;;;;;;;;;19.50;16.50;;;;;22.16;78.34;99615.53;2389062;39;2829325;-48
2021/08/23 06:28:20;;;;;;;;;10.50;10.50;;;;;21.95;79.00;99620.66;2393356;31;2792926;-48
2021/08/23 06:30:49;;;;;;;;;14.00;14.00;;;;;22.01;78.42;99612.66;2403498;31;3527252;-45
2021/08/23 06:33:17;;;;;;;;;16.33;15.00;;;;;22.15;78.11;99613.84;2405415;31;2817934;-48
2021/08/23 06:35:46;;;;;;;;;18.00;14.50;;;;;22.10;79.03;99614.34;2403347;31;2485604;-46
2021/08/23 06:38:14;;;;;;;;;14.00;14.00;;;;;22.10;78.96;99614.34;2403187;31;2481461;-48
2021/08/23 06:40:43;;;;;;;;;15.33;15.00;;;;;22.27;77.94;99622.56;2404036;31;2481434;-46
2021/08/23 06:43:11;;;;;;;;;13.67;13.67;;;;;22.86;76.66;99623.19;2400795;39;3524215;-46
2021/08/23 06:45:40;;;;;;;;;13.33;13.33;;;;;22.73;76.18;99614.66;2389164;31;3531549;-47
2021/08/23 06:48:08;;;;;;;;;15.67;14.67;;;;;22.56;77.06;99617.44;2388733;31;3543941;-47
2021/08/23 06:50:37;;;;;;;;;15.00;11.00;;;;;22.38;77.86;99621.38;2404018;31;2481466;-46
2021/08/23 06:53:05;;;;;;;;;17.00;15.33;;;;;22.44;77.55;99618.81;2403274;31;3540754;-47
2021/08/23 06:55:34;;;;;;;;;15.67;15.67;;;;;22.74;75.84;99613.63;2402480;31;3545967;-47
2021/08/23 06:58:02;;;;;;;;;16.33;16.33;;;;;22.55;76.57;99623.94;2388915;31;3556395;-45
2021/08/23 07:00:31;;;;;;;;;20.00;19.00;;;;;22.91;76.03;99620.78;2390195;31;2833499;-47
2021/08/23 07:03:02;;;;;;;;;16.33;15.00;;;;;24.33;70.62;99624.31;2389749;31;3545359;-46
2021/08/23 07:05:30;;;;;;;;;17.00;15.00;;;;;25.91;65.03;99632.28;2389852;31;2816844;-47
2021/08/23 07:07:58;;;;;;;;;14.00;12.67;;;;;26.25;61.35;99634.34;2392444;39;2481457;-47
2021/08/23 07:10:27;;;;;;;;;12.33;12.33;;;;;24.51;68.36;99630.34;2402006;31;3531423;-48
